createdAt,value
2022-09-10T00:01:10.835Z,14.15
2022-09-10T00:03:43.604Z,14.14
2022-09-10T00:06:18.440Z,14.11
2022-09-10T00:08:51.044Z,14.16
2022-09-10T00:11:25.181Z,14.15
2022-09-10T00:13:58.195Z,14.17
2022-09-10T00:16:31.240Z,14.17
2022-09-10T00:19:03.782Z,14.09
2022-09-10T00:21:36.174Z,14.22
2022-09-10T00:24:08.454Z,14.22
2022-09-10T00:26:40.820Z,14.21
2022-09-10T00:29:15.099Z,14.25
2022-09-10T00:31:47.494Z,14.27
2022-09-10T00:34:19.814Z,14.24
2022-09-10T00:36:52.063Z,14.27
2022-09-10T00:39:24.390Z,14.27
2022-09-10T00:41:57.740Z,14.29
2022-09-10T00:44:43.632Z,14.26
2022-09-10T00:47:23.611Z,14.25
2022-09-10T00:49:58.350Z,14.26
2022-09-10T00:52:30.788Z,14.31
2022-09-10T00:55:03.622Z,14.31
2022-09-10T00:57:36.103Z,14.36
2022-09-10T01:00:10.494Z,14.38
2022-09-10T01:02:43.301Z,14.41
2022-09-10T01:05:17.340Z,14.38
2022-09-10T01:07:49.638Z,14.41
2022-09-10T01:10:24.627Z,14.40
2022-09-10T01:13:02.780Z,14.42
2022-09-10T01:15:46.309Z,14.33
2022-09-10T01:18:28.206Z,14.40
2022-09-10T01:21:11.268Z,14.40
2022-09-10T01:24:13.046Z,14.42
2022-09-10T01:27:03.905Z,14.50
2022-09-10T01:29:39.432Z,14.59
2022-09-10T01:32:15.371Z,14.66
2022-09-10T01:34:53.151Z,14.61
2022-09-10T01:37:28.784Z,14.58
2022-09-10T01:40:01.836Z,14.56
2022-09-10T01:42:37.174Z,14.53
2022-09-10T01:45:12.150Z,14.58
2022-09-10T01:48:02.985Z,14.59
2022-09-10T01:50:57.169Z,14.61
2022-09-10T01:53:33.369Z,14.61
2022-09-10T01:56:27.749Z,14.61
2022-09-10T01:59:04.058Z,14.60
2022-09-10T02:01:41.275Z,14.57
2022-09-10T02:04:15.043Z,14.59
2022-09-10T02:06:48.539Z,14.60
2022-09-10T02:09:20.972Z,14.58
2022-09-10T02:11:54.285Z,14.62
2022-09-10T02:14:26.759Z,14.62
2022-09-10T02:16:59.815Z,14.62
2022-09-10T02:19:32.139Z,14.65
2022-09-10T02:22:04.700Z,14.63
2022-09-10T02:24:36.970Z,14.67
2022-09-10T02:27:09.988Z,14.68
2022-09-10T02:29:42.458Z,14.68
2022-09-10T02:32:14.827Z,14.65
2022-09-10T02:34:48.274Z,14.64
2022-09-10T02:37:20.823Z,14.63
2022-09-10T02:39:53.206Z,14.61
2022-09-10T02:42:26.370Z,14.61
2022-09-10T02:44:58.926Z,14.60
2022-09-10T02:47:31.271Z,14.66
2022-09-10T02:50:06.666Z,14.66
2022-09-10T02:52:39.136Z,14.69
2022-09-10T02:55:12.644Z,14.70
2022-09-10T02:57:45.385Z,14.69
2022-09-10T03:00:19.492Z,14.68
2022-09-10T03:02:51.876Z,14.64
2022-09-10T03:05:24.263Z,14.61
2022-09-10T03:07:57.169Z,14.63
2022-09-10T03:10:31.797Z,14.65
2022-09-10T03:13:04.276Z,14.68
2022-09-10T03:15:36.593Z,14.65
2022-09-10T03:18:09.314Z,14.69
2022-09-10T03:20:41.825Z,14.69
2022-09-10T03:23:14.310Z,14.69
2022-09-10T03:25:49.617Z,14.71
2022-09-10T03:28:23.833Z,14.71
2022-09-10T03:30:56.713Z,14.71
2022-09-10T03:33:29.206Z,14.72
2022-09-10T03:36:02.600Z,14.73
2022-09-10T03:38:35.150Z,14.75
2022-09-10T03:41:07.877Z,14.78
2022-09-10T03:43:40.435Z,14.72
2022-09-10T03:46:12.838Z,14.73
2022-09-10T03:48:45.156Z,14.69
2022-09-10T03:51:17.527Z,14.76
2022-09-10T03:53:49.833Z,14.72
2022-09-10T03:56:22.404Z,14.76
2022-09-10T03:58:54.736Z,14.77
2022-09-10T04:01:27.382Z,14.75
2022-09-10T04:03:59.860Z,14.78
2022-09-10T04:06:35.677Z,14.80
2022-09-10T04:09:08.105Z,14.82
2022-09-10T04:11:40.849Z,14.80
2022-09-10T04:14:13.188Z,14.79
2022-09-10T04:16:46.722Z,14.80
2022-09-10T04:19:19.073Z,14.77
2022-09-10T04:21:52.938Z,14.78
2022-09-10T04:24:25.486Z,14.77
2022-09-10T04:26:58.957Z,14.77
2022-09-10T04:29:32.517Z,14.74
2022-09-10T04:32:04.966Z,14.74
2022-09-10T04:34:37.576Z,14.73
2022-09-10T04:37:10.050Z,14.74
2022-09-10T04:39:43.763Z,14.75
2022-09-10T04:42:20.221Z,14.74
2022-09-10T04:44:52.562Z,14.74
2022-09-10T04:47:24.939Z,14.74
2022-09-10T04:49:57.613Z,14.78
2022-09-10T04:52:30.015Z,14.76
2022-09-10T04:55:02.433Z,14.81
2022-09-10T04:57:36.026Z,14.81
2022-09-10T05:00:08.844Z,14.83
2022-09-10T05:02:41.318Z,14.87
2022-09-10T05:05:13.933Z,14.81
2022-09-10T05:07:46.278Z,14.81
2022-09-10T05:10:20.683Z,14.81
2022-09-10T05:12:53.809Z,14.80
2022-09-10T05:15:26.625Z,14.79
2022-09-10T05:17:59.606Z,14.81
2022-09-10T05:20:32.091Z,14.77
2022-09-10T05:23:04.590Z,14.80
2022-09-10T05:25:37.677Z,14.85
2022-09-10T08:49:23.756Z,16.04
2022-09-10T08:52:02.087Z,16.10
2022-09-10T08:54:37.787Z,16.24
2022-09-10T08:57:22.131Z,16.19
2022-09-10T08:59:56.650Z,16.33
2022-09-10T09:02:49.391Z,16.40
2022-09-10T09:05:24.856Z,16.53
2022-09-10T09:07:59.515Z,16.44
2022-09-10T09:10:50.894Z,16.54
2022-09-10T09:13:42.158Z,16.62
2022-09-10T09:16:20.470Z,16.37
2022-09-10T09:18:54.539Z,16.23
2022-09-10T09:21:36.757Z,16.18
2022-09-10T09:24:23.574Z,16.10
2022-09-10T09:27:01.120Z,16.06
2022-09-10T09:29:39.715Z,16.00
2022-09-10T09:32:14.024Z,16.05
2022-09-10T09:34:51.367Z,16.10
2022-09-10T09:37:25.753Z,16.23
2022-09-10T09:40:07.183Z,16.29
2022-09-10T09:42:44.279Z,16.39
2022-09-10T09:45:21.460Z,16.53
2022-09-10T09:47:54.575Z,16.74
2022-09-10T09:50:29.131Z,16.70
2022-09-10T09:53:01.394Z,16.81
2022-09-10T09:55:37.758Z,17.14
2022-09-10T09:58:30.329Z,17.29
2022-09-10T10:01:05.930Z,17.48
2022-09-10T10:03:48.287Z,17.49
2022-09-10T10:06:22.255Z,17.29
2022-09-10T10:08:57.025Z,17.22
2022-09-10T10:11:47.165Z,17.12
2022-09-10T10:14:20.119Z,16.96
2022-09-10T10:16:57.368Z,17.00
2022-09-10T10:19:38.376Z,16.88
2022-09-10T10:22:20.598Z,16.76
2022-09-10T10:24:54.315Z,16.82
2022-09-10T10:27:32.706Z,16.86
2022-09-10T10:30:14.312Z,17.01
2022-09-10T10:32:52.603Z,17.40
2022-09-10T10:35:28.155Z,17.61
2022-09-10T10:38:03.222Z,17.70
2022-09-10T10:40:39.267Z,17.93
2022-09-10T10:43:26.546Z,17.87
2022-09-10T10:46:07.641Z,17.84
2022-09-10T10:48:46.901Z,17.95
2022-09-10T10:51:36.498Z,17.84
2022-09-10T10:54:19.757Z,17.75
2022-09-10T10:57:10.810Z,17.64
2022-09-10T10:59:53.366Z,17.54
2022-09-10T11:02:38.424Z,17.88
2022-09-10T11:05:31.764Z,18.06
2022-09-10T11:08:07.999Z,18.22
2022-09-10T11:10:40.308Z,18.33
2022-09-10T11:13:15.986Z,18.43
2022-09-10T11:15:52.453Z,18.36
2022-09-10T11:18:28.387Z,18.36
2022-09-10T11:21:20.896Z,18.30
2022-09-10T11:23:56.141Z,18.10
2022-09-10T11:26:34.798Z,17.77
2022-09-10T11:29:16.147Z,17.56
2022-09-10T11:32:02.829Z,17.29
2022-09-10T11:34:50.057Z,17.14
2022-09-10T11:37:45.467Z,17.02
2022-09-10T11:40:36.703Z,16.99
2022-09-10T11:43:14.530Z,16.97
2022-09-10T11:45:48.797Z,16.96
2022-09-10T11:48:24.884Z,16.98
2022-09-10T11:51:01.951Z,17.02
2022-09-10T11:53:36.920Z,17.06
2022-09-10T11:56:09.439Z,16.97
2022-09-10T11:58:48.962Z,16.87
2022-09-10T12:01:33.963Z,16.86
2022-09-10T12:04:24.729Z,16.94
2022-09-10T12:07:09.264Z,16.94
2022-09-10T12:09:52.074Z,17.07
2022-09-10T12:12:37.831Z,17.20
2022-09-10T12:15:15.552Z,17.32
2022-09-10T12:17:50.769Z,17.46
2022-09-10T12:20:28.633Z,17.61
2022-09-10T12:23:01.337Z,17.72
2022-09-10T12:25:35.023Z,17.97
2022-09-10T12:28:27.573Z,18.13
2022-09-10T12:31:00.610Z,18.39
2022-09-10T12:33:33.015Z,18.67
2022-09-10T12:36:05.391Z,19.03
2022-09-10T12:38:46.945Z,19.48
2022-09-10T12:41:25.275Z,19.74
2022-09-10T12:43:58.560Z,19.66
2022-09-10T12:46:31.477Z,19.79
2022-09-10T12:49:05.434Z,20.89
2022-09-10T12:51:43.865Z,21.74
2022-09-10T12:54:19.723Z,22.90
2022-09-10T12:56:56.571Z,22.41
2022-09-10T12:59:47.920Z,20.86
2022-09-10T13:02:28.602Z,19.71
2022-09-10T13:05:03.135Z,18.77
2022-09-10T13:07:41.673Z,18.28
2022-09-10T13:10:21.714Z,18.05
2022-09-10T13:12:56.779Z,17.98
2022-09-10T13:15:30.972Z,17.96
2022-09-10T13:18:09.216Z,17.84
2022-09-10T13:20:41.477Z,17.77
2022-09-10T13:23:18.188Z,17.74
2022-09-10T13:25:51.329Z,17.68
2022-09-10T13:28:29.888Z,17.62
2022-09-10T13:31:02.133Z,17.70
2022-09-10T13:33:49.766Z,17.82
2022-09-10T13:36:25.081Z,17.84
2022-09-10T13:39:16.266Z,17.81
2022-09-10T13:42:04.505Z,17.70
2022-09-10T13:44:39.480Z,17.76
2022-09-10T13:47:24.392Z,17.80
2022-09-10T13:50:02.423Z,17.92
2022-09-10T13:52:36.088Z,18.02
2022-09-10T13:55:08.672Z,18.11
2022-09-10T13:57:42.772Z,18.21
2022-09-10T14:00:15.274Z,18.35
2022-09-10T14:02:48.577Z,18.39
2022-09-10T14:05:41.151Z,18.30
2022-09-10T14:08:20.309Z,18.39
2022-09-10T14:10:56.185Z,18.35
2022-09-10T14:13:31.066Z,18.28
2022-09-10T14:16:04.704Z,18.16
2022-09-10T14:18:43.346Z,18.04
2022-09-10T14:21:17.229Z,17.97
2022-09-10T14:23:49.665Z,17.86
2022-09-10T14:26:27.308Z,17.75
2022-09-10T14:29:01.186Z,17.62
2022-09-10T14:31:35.348Z,17.63
2022-09-10T14:34:24.955Z,17.68
2022-09-10T14:36:58.746Z,17.69
2022-09-10T14:39:31.187Z,17.73
2022-09-10T14:42:21.559Z,17.71
2022-09-10T14:44:54.315Z,17.76
2022-09-10T14:47:29.680Z,17.89
2022-09-10T14:50:20.772Z,18.01
2022-09-10T14:52:53.479Z,17.99
2022-09-10T14:55:27.638Z,18.05
2022-09-10T14:58:00.062Z,18.25
2022-09-10T15:00:33.272Z,18.48
2022-09-10T15:03:14.009Z,18.62
2022-09-10T15:05:46.266Z,18.69
2022-09-10T15:08:18.600Z,18.60
2022-09-10T15:10:50.957Z,18.48
2022-09-10T15:13:23.216Z,18.44
2022-09-10T15:15:55.888Z,18.42
2022-09-10T15:18:28.241Z,18.38
2022-09-10T15:21:01.385Z,18.57
2022-09-10T15:23:34.573Z,19.13
2022-09-10T15:26:06.924Z,20.70
2022-09-10T15:28:39.525Z,22.38
2022-09-10T15:31:11.861Z,22.84
2022-09-10T15:33:44.300Z,21.67
2022-09-10T15:36:16.583Z,20.82
2022-09-10T15:38:52.666Z,20.73
2022-09-10T15:41:25.206Z,20.88
2022-09-10T15:43:58.088Z,21.14
2022-09-10T15:46:30.467Z,21.37
2022-09-10T15:49:04.240Z,21.38
2022-09-10T15:51:36.545Z,21.89
2022-09-10T15:54:10.322Z,22.76
2022-09-10T15:56:42.704Z,22.80
2022-09-10T15:59:16.968Z,21.99
2022-09-10T16:01:50.080Z,21.11
2022-09-10T16:04:23.469Z,20.47
2022-09-10T16:06:57.083Z,19.95
2022-09-10T16:09:29.662Z,19.57
2022-09-10T16:12:02.086Z,19.26
2022-09-10T16:14:35.825Z,19.00
2022-09-10T16:17:10.748Z,18.74
2022-09-10T16:19:43.021Z,18.49
2022-09-10T16:22:18.743Z,18.26
2022-09-10T16:24:53.009Z,18.07
2022-09-10T16:27:25.375Z,18.01
2022-09-10T16:29:57.636Z,17.96
2022-09-10T16:32:31.576Z,17.97
2022-09-10T16:35:04.603Z,17.95
2022-09-10T16:37:37.432Z,17.87
2022-09-10T16:40:11.362Z,17.72
2022-09-10T16:42:43.639Z,17.59
2022-09-10T16:45:15.914Z,17.47
2022-09-10T16:47:48.216Z,17.39
2022-09-10T16:50:20.656Z,17.30
2022-09-10T16:52:53.803Z,17.27
2022-09-10T16:55:26.223Z,17.33
2022-09-10T16:57:58.556Z,17.38
2022-09-10T17:00:30.927Z,17.39
2022-09-10T17:03:03.745Z,17.36
2022-09-10T17:05:36.325Z,17.38
2022-09-10T17:08:09.645Z,17.47
2022-09-10T17:10:42.016Z,17.57
2022-09-10T17:13:14.857Z,17.74
2022-09-10T17:15:47.425Z,17.83
2022-09-10T17:18:19.785Z,17.77
2022-09-10T17:20:55.097Z,17.68
2022-09-10T17:23:29.000Z,17.55
2022-09-10T17:26:06.266Z,17.39
2022-09-10T17:28:38.906Z,17.29
2022-09-10T17:31:11.398Z,17.21
2022-09-10T17:33:44.085Z,17.21
2022-09-10T17:36:17.456Z,17.21
2022-09-10T17:38:49.915Z,17.26
2022-09-10T17:41:23.017Z,17.26
2022-09-10T17:43:55.778Z,17.26
2022-09-10T17:46:28.199Z,17.28
2022-09-10T17:49:00.916Z,17.33
2022-09-10T17:51:34.370Z,17.37
2022-09-10T17:54:08.339Z,17.45
2022-09-10T17:56:41.666Z,17.47
2022-09-10T17:59:14.322Z,17.50
2022-09-10T18:01:47.652Z,17.47
2022-09-10T18:04:21.530Z,17.41
2022-09-10T18:06:55.294Z,17.35
2022-09-10T18:09:27.852Z,17.27
2022-09-10T18:12:02.090Z,17.22
2022-09-10T18:14:34.558Z,17.12
2022-09-10T18:17:06.889Z,16.95
2022-09-10T18:19:39.493Z,16.77
2022-09-10T18:22:12.464Z,16.63
2022-09-10T18:24:44.800Z,16.54
2022-09-10T18:27:18.389Z,16.33
2022-09-10T18:29:51.140Z,16.27
2022-09-10T18:32:26.146Z,16.27
2022-09-10T18:34:58.676Z,16.25
2022-09-10T18:37:33.438Z,16.22
2022-09-10T18:40:06.748Z,16.14
2022-09-10T18:42:42.502Z,16.06
2022-09-10T18:45:17.379Z,15.95
2022-09-10T18:47:49.819Z,15.88
2022-09-10T18:50:22.212Z,15.81
2022-09-10T18:52:54.545Z,15.71
2022-09-10T18:55:26.865Z,15.64
2022-09-10T18:57:59.409Z,15.60
2022-09-10T19:00:33.451Z,15.53
2022-09-10T19:03:06.083Z,15.50
2022-09-10T19:05:38.389Z,15.44
2022-09-10T19:08:10.700Z,15.38
2022-09-10T19:10:43.042Z,15.24
2022-09-10T19:13:16.672Z,15.15
2022-09-10T19:15:56.068Z,15.13
2022-09-10T19:18:29.257Z,15.08
2022-09-10T19:21:06.434Z,15.01
2022-09-10T19:23:39.607Z,14.94
2022-09-10T19:26:12.189Z,14.91
2022-09-10T19:28:45.399Z,14.88
2022-09-10T19:31:20.585Z,14.84
2022-09-10T19:33:57.366Z,14.81
2022-09-10T19:36:35.232Z,14.72
2022-09-10T19:39:08.903Z,14.68
2022-09-10T19:41:42.015Z,14.65
2022-09-10T19:44:15.864Z,14.61
2022-09-10T19:46:48.206Z,14.58
2022-09-10T19:49:20.982Z,14.50
2022-09-10T19:51:55.065Z,14.31
2022-09-10T19:54:28.614Z,14.45
2022-09-10T19:57:00.882Z,14.40
2022-09-10T19:59:33.420Z,14.34
2022-09-10T20:02:05.869Z,14.30
